createdAt,value
2022-12-13T00:02:10.369Z,-6.86
2022-12-13T00:04:38.516Z,-6.86
2022-12-13T00:07:08.291Z,-6.88
2022-12-13T00:09:36.368Z,-6.89
2022-12-13T00:12:04.780Z,-6.88
2022-12-13T00:14:33.792Z,-6.88
2022-12-13T00:17:02.048Z,-6.84
2022-12-13T00:19:30.372Z,-7.00
2022-12-13T00:21:58.557Z,-7.00
2022-12-13T00:24:28.079Z,-6.91
2022-12-13T00:26:56.673Z,-6.94
2022-12-13T00:29:24.783Z,-6.97
2022-12-13T00:32:00.222Z,-6.99
2022-12-13T00:34:29.422Z,-7.04
2022-12-13T00:36:59.237Z,-7.06
2022-12-13T00:39:29.542Z,-7.13
2022-12-13T00:41:57.900Z,-7.06
2022-12-13T00:44:26.273Z,-7.11
2022-12-13T00:46:54.796Z,-7.08
2022-12-13T00:49:22.998Z,-7.13
2022-12-13T00:51:51.190Z,-7.10
2022-12-13T00:54:19.909Z,-7.06
2022-12-13T00:56:51.374Z,-7.17
2022-12-13T00:59:19.652Z,-7.25
2022-12-13T01:01:47.846Z,-7.16
2022-12-13T01:04:16.148Z,-7.14
2022-12-13T01:06:45.964Z,-7.21
2022-12-13T01:09:18.410Z,-7.23
2022-12-13T01:11:47.569Z,-7.24
2022-12-13T01:14:17.639Z,-7.33
2022-12-13T01:16:46.007Z,-7.37
2022-12-13T01:19:14.196Z,-7.32
2022-12-13T01:21:42.283Z,-7.22
2022-12-13T01:24:10.489Z,-7.35
2022-12-13T01:26:38.694Z,-7.25
2022-12-13T01:29:07.041Z,-7.30
2022-12-13T01:31:37.573Z,-7.37
2022-12-13T01:34:13.134Z,-7.34
2022-12-13T01:36:43.639Z,-7.28
2022-12-13T01:39:15.140Z,-7.35
2022-12-13T01:41:45.525Z,-7.41
2022-12-13T01:44:50.849Z,-7.37
2022-12-13T01:47:25.153Z,-7.49
2022-12-13T01:49:55.783Z,-7.53
2022-12-13T01:52:24.317Z,-7.42
2022-12-13T01:54:57.057Z,-7.45
2022-12-13T01:57:34.435Z,-7.55
2022-12-13T02:00:03.180Z,-7.50
2022-12-13T02:02:37.438Z,-7.60
2022-12-13T02:05:09.908Z,-7.60
2022-12-13T02:07:39.391Z,-7.62
2022-12-13T02:10:09.550Z,-7.65
2022-12-13T02:12:39.384Z,-7.69
2022-12-13T02:15:12.003Z,-7.70
2022-12-13T02:17:57.333Z,-7.63
2022-12-13T02:20:55.857Z,-7.77
2022-12-13T02:24:00.215Z,-7.72
2022-12-13T02:26:52.059Z,-7.74
2022-12-13T02:29:44.741Z,-7.81
2022-12-13T02:32:18.995Z,-7.72
2022-12-13T02:34:52.725Z,-7.82
2022-12-13T02:37:26.476Z,-7.86
2022-12-13T02:40:01.379Z,-7.88
2022-12-13T02:42:36.106Z,-7.89
2022-12-13T02:45:09.756Z,-8.02
2022-12-13T02:47:43.418Z,-7.88
2022-12-13T02:50:15.135Z,-7.90
2022-12-13T02:52:46.717Z,-7.91
2022-12-13T02:55:18.007Z,-7.98
2022-12-13T02:57:48.702Z,-7.94
2022-12-13T03:00:20.526Z,-7.91
2022-12-13T03:03:03.105Z,-7.94
2022-12-13T03:05:58.550Z,-7.97
2022-12-13T03:08:33.561Z,-7.98
2022-12-13T03:11:07.023Z,-8.02
2022-12-13T03:13:44.546Z,-7.99
2022-12-13T03:16:23.041Z,-8.03
2022-12-13T03:18:54.527Z,-8.03
2022-12-13T03:21:23.662Z,-7.99
2022-12-13T03:23:51.888Z,-7.93
2022-12-13T03:26:23.340Z,-7.94
2022-12-13T03:28:51.976Z,-8.02
2022-12-13T03:31:21.025Z,-8.08
2022-12-13T03:33:49.334Z,-8.13
2022-12-13T03:36:19.936Z,-8.09
2022-12-13T03:38:52.432Z,-8.14
2022-12-13T03:41:23.991Z,-8.11
2022-12-13T03:43:52.231Z,-8.22
2022-12-13T03:46:20.414Z,-8.14
2022-12-13T03:48:48.606Z,-8.19
2022-12-13T03:51:18.145Z,-8.27
2022-12-13T03:53:46.332Z,-8.20
2022-12-13T03:56:14.484Z,-8.12
2022-12-13T03:58:43.335Z,-8.12
2022-12-13T04:01:13.569Z,-8.14
2022-12-13T04:03:44.173Z,-8.04
2022-12-13T04:06:13.351Z,-8.12
2022-12-13T04:08:53.154Z,-8.23
2022-12-13T04:11:42.793Z,-8.17
2022-12-13T04:14:11.776Z,-8.16
2022-12-13T04:16:40.630Z,-8.18
2022-12-13T04:19:08.764Z,-8.22
2022-12-13T04:21:36.939Z,-8.24
2022-12-13T04:24:06.939Z,-8.24
2022-12-13T04:26:35.022Z,-8.17
2022-12-13T04:29:03.212Z,-8.26
2022-12-13T04:31:31.425Z,-8.33
2022-12-13T04:33:59.605Z,-8.25
2022-12-13T04:36:32.588Z,-8.29
2022-12-13T04:39:01.964Z,-8.39
2022-12-13T04:41:36.070Z,-8.32
2022-12-13T04:44:05.293Z,-8.28
2022-12-13T04:46:33.899Z,-8.36
2022-12-13T04:49:02.456Z,-8.38
2022-12-13T04:51:31.408Z,-8.30
2022-12-13T04:54:13.025Z,-8.39
2022-12-13T04:56:50.121Z,-8.42
2022-12-13T04:59:18.692Z,-8.33
2022-12-13T05:01:46.778Z,-8.38
2022-12-13T05:04:14.881Z,-8.42
2022-12-13T05:06:43.081Z,-8.45
2022-12-13T05:09:11.754Z,-8.42
2022-12-13T05:11:45.863Z,-8.48
2022-12-13T05:14:23.207Z,-8.34
2022-12-13T05:16:52.110Z,-8.31
2022-12-13T05:19:20.486Z,-8.43
2022-12-13T05:21:49.789Z,-8.34
2022-12-13T05:24:19.053Z,-8.40
2022-12-13T05:26:47.116Z,-8.44
2022-12-13T05:29:15.271Z,-8.37
2022-12-13T05:31:45.054Z,-8.44
2022-12-13T05:34:13.308Z,-8.48
2022-12-13T05:36:42.057Z,-8.52
2022-12-13T05:39:28.817Z,-8.44
2022-12-13T05:42:01.133Z,-8.49
2022-12-13T05:44:29.875Z,-8.50
2022-12-13T05:46:59.558Z,-8.49
2022-12-13T05:49:30.590Z,-8.52
2022-12-13T05:51:58.783Z,-8.53
2022-12-13T05:54:26.863Z,-8.57
2022-12-13T05:56:54.948Z,-8.50
2022-12-13T05:59:23.452Z,-8.53
2022-12-13T06:01:51.630Z,-8.55
2022-12-13T06:04:22.858Z,-8.66
2022-12-13T06:06:52.033Z,-8.64
2022-12-13T06:09:20.396Z,-8.57
2022-12-13T06:11:48.670Z,-8.80
2022-12-13T06:14:21.827Z,-8.65
2022-12-13T06:16:51.894Z,-8.67
2022-12-13T06:19:24.772Z,-8.73
2022-12-13T06:21:55.485Z,-8.62
2022-12-13T06:24:25.292Z,-8.66
2022-12-13T06:26:54.617Z,-8.67
2022-12-13T06:29:25.675Z,-8.68
2022-12-13T06:32:00.992Z,-8.61
2022-12-13T06:34:34.478Z,-8.60
2022-12-13T06:37:04.852Z,-8.63
2022-12-13T06:39:33.766Z,-8.66
2022-12-13T06:42:03.516Z,-8.57
2022-12-13T06:44:31.758Z,-8.65
2022-12-13T06:47:10.026Z,-8.57
2022-12-13T06:49:44.281Z,-8.55
2022-12-13T06:52:14.965Z,-8.52
2022-12-13T06:54:43.537Z,-8.51
2022-12-13T06:57:12.054Z,-8.46
2022-12-13T06:59:40.585Z,-8.42
2022-12-13T07:02:24.456Z,-8.28
2022-12-13T07:04:55.848Z,-8.14
2022-12-13T07:07:25.225Z,-8.04
2022-12-13T07:09:53.443Z,-7.73
2022-12-13T07:12:22.035Z,-7.58
2022-12-13T07:14:50.222Z,-7.51
2022-12-13T07:17:33.255Z,-7.32
2022-12-13T07:20:07.884Z,-7.10
2022-12-13T07:22:43.001Z,-6.92
2022-12-13T07:25:28.091Z,-6.79
2022-12-13T07:28:03.084Z,-6.53
2022-12-13T07:30:32.597Z,-6.35
2022-12-13T07:33:01.995Z,-6.17
2022-12-13T07:35:36.981Z,-5.96
2022-12-13T07:38:07.208Z,-5.89
2022-12-13T07:40:35.733Z,-5.65
2022-12-13T07:43:04.584Z,-5.67
2022-12-13T07:45:32.871Z,-5.41
2022-12-13T07:48:05.569Z,-5.17
2022-12-13T07:50:36.902Z,-5.18
2022-12-13T07:53:07.272Z,-4.79
2022-12-13T07:55:35.882Z,-4.65
2022-12-13T07:58:08.717Z,-4.08
2022-12-13T08:00:37.186Z,-3.78
2022-12-13T08:03:06.008Z,-3.40
2022-12-13T08:05:38.787Z,-3.24
2022-12-13T08:08:09.212Z,-2.87
2022-12-13T08:10:38.006Z,-2.73
2022-12-13T08:13:07.346Z,-2.47
2022-12-13T08:15:35.473Z,-2.24
2022-12-13T08:18:04.172Z,-1.96
2022-12-13T08:20:32.399Z,-1.92
2022-12-13T08:23:02.713Z,-1.72
2022-12-13T08:25:31.773Z,-1.56
2022-12-13T08:28:01.966Z,-1.44
2022-12-13T08:30:32.666Z,-1.22
2022-12-13T08:33:04.737Z,-1.15
2022-12-13T08:35:35.020Z,-0.77
2022-12-13T08:38:05.327Z,-0.52
2022-12-13T08:40:33.518Z,-0.41
2022-12-13T08:43:01.762Z,-0.31
2022-12-13T08:45:31.743Z,-0.17
2022-12-13T08:48:00.825Z,0.14
2022-12-13T08:50:29.252Z,0.28
2022-12-13T08:52:57.698Z,0.27
2022-12-13T08:55:31.620Z,0.37
2022-12-13T08:58:04.867Z,0.34
2022-12-13T09:00:35.660Z,0.39
2022-12-13T09:03:04.801Z,0.54
2022-12-13T09:05:35.184Z,0.96
2022-12-13T09:08:13.263Z,0.77
2022-12-13T09:10:59.690Z,1.20
2022-12-13T09:13:32.488Z,1.50
2022-12-13T09:16:05.248Z,1.71
2022-12-13T09:18:42.407Z,1.78
2022-12-13T09:21:13.464Z,1.79
2022-12-13T09:23:50.281Z,1.69
2022-12-13T09:26:25.494Z,1.81
2022-12-13T09:28:53.884Z,1.81
2022-12-13T09:31:22.642Z,2.00
2022-12-13T09:33:50.894Z,2.21
2022-12-13T09:36:21.375Z,2.09
2022-12-13T09:38:49.808Z,2.32
2022-12-13T09:41:28.578Z,2.67
2022-12-13T09:44:01.719Z,2.87
2022-12-13T09:46:34.266Z,2.87
2022-12-13T09:49:22.977Z,2.73
2022-12-13T09:52:11.169Z,3.05
2022-12-13T09:54:49.388Z,3.30
2022-12-13T09:57:32.387Z,3.53
2022-12-13T10:00:03.487Z,3.74
2022-12-13T10:02:44.855Z,3.61
2022-12-13T10:05:22.580Z,3.78
2022-12-13T10:07:55.840Z,3.79
2022-12-13T10:10:24.954Z,3.69
2022-12-13T10:13:00.007Z,3.63
2022-12-13T10:15:29.439Z,3.90
2022-12-13T10:17:58.448Z,4.13
2022-12-13T10:20:30.056Z,3.90
2022-12-13T10:25:51.296Z,4.38
2022-12-13T10:28:27.819Z,4.46
2022-12-13T10:30:57.052Z,4.23
2022-12-13T10:33:28.411Z,4.00
2022-12-13T10:36:14.137Z,4.55
2022-12-13T10:38:44.211Z,4.82
2022-12-13T10:41:35.376Z,4.16
2022-12-13T10:44:17.430Z,4.44
2022-12-13T10:46:51.089Z,4.79
2022-12-13T10:49:23.077Z,4.93
2022-12-13T10:51:52.686Z,4.59
2022-12-13T10:54:28.168Z,4.62
2022-12-13T10:57:00.345Z,5.00
2022-12-13T10:59:35.124Z,4.98
2022-12-13T11:02:21.703Z,4.76
2022-12-13T11:04:50.308Z,4.91
2022-12-13T11:07:27.000Z,4.89
2022-12-13T11:09:55.193Z,5.26
2022-12-13T11:12:26.086Z,4.92
2022-12-13T11:14:59.283Z,4.99
2022-12-13T11:17:29.449Z,5.11
2022-12-13T11:19:59.209Z,5.22
2022-12-13T11:22:29.930Z,5.27
2022-12-13T11:25:02.611Z,5.27
2022-12-13T11:27:51.095Z,5.15
2022-12-13T11:30:25.598Z,4.89
2022-12-13T11:33:14.636Z,5.26
2022-12-13T11:35:54.717Z,5.36
2022-12-13T11:38:32.042Z,4.60
2022-12-13T11:41:07.590Z,4.82
2022-12-13T11:43:41.466Z,5.28
2022-12-13T11:46:18.966Z,5.55
2022-12-13T11:48:52.998Z,5.45
2022-12-13T11:51:28.311Z,5.55
2022-12-13T11:54:01.431Z,5.70
2022-12-13T11:56:35.363Z,5.78
2022-12-13T11:59:25.998Z,5.35
2022-12-13T12:02:05.063Z,5.52
2022-12-13T12:04:40.573Z,5.77
2022-12-13T12:07:32.341Z,5.43
2022-12-13T12:10:15.422Z,5.42
2022-12-13T12:12:50.768Z,5.56
2022-12-13T12:15:26.583Z,5.56
2022-12-13T12:17:57.303Z,5.36
2022-12-13T12:20:43.193Z,5.34
2022-12-13T12:23:21.821Z,5.08
2022-12-13T12:25:57.047Z,5.30
2022-12-13T12:28:33.069Z,5.06
2022-12-13T12:31:09.955Z,5.05
2022-12-13T12:33:51.256Z,4.93
2022-12-13T12:36:40.813Z,4.78
2022-12-13T12:39:33.245Z,5.14
2022-12-13T12:42:28.679Z,5.00
2022-12-13T12:45:17.443Z,4.46
2022-12-13T12:48:48.960Z,4.34
2022-12-13T12:51:03.942Z,3.88
2022-12-13T12:53:40.921Z,3.70
2022-12-13T12:56:32.833Z,3.94
2022-12-13T12:59:13.604Z,3.66
2022-12-13T13:01:54.014Z,3.74
2022-12-13T13:04:28.085Z,3.90
2022-12-13T13:07:02.159Z,3.66
2022-12-13T13:09:31.480Z,3.21
2022-12-13T13:12:29.733Z,3.11
2022-12-13T13:14:52.002Z,3.30
2022-12-13T13:17:47.143Z,3.37
2022-12-13T13:20:25.158Z,3.84
2022-12-13T13:23:17.510Z,4.26
2022-12-13T13:26:16.032Z,4.49
2022-12-13T13:28:43.621Z,4.19
2022-12-13T13:31:12.848Z,3.95
2022-12-13T13:33:46.849Z,4.03
2022-12-13T13:36:48.356Z,3.86
2022-12-13T13:39:19.720Z,3.48
2022-12-13T13:41:57.152Z,3.67
2022-12-13T13:45:03.469Z,3.47
2022-12-13T13:47:43.167Z,3.30
2022-12-13T13:50:47.548Z,3.08
2022-12-13T13:53:56.005Z,2.72
2022-12-13T13:56:45.496Z,2.80
2022-12-13T14:00:03.859Z,2.49
2022-12-13T14:03:22.073Z,2.59
2022-12-13T14:06:49.857Z,2.13
2022-12-13T14:09:41.248Z,2.22
2022-12-13T14:12:42.202Z,1.94
2022-12-13T14:15:49.828Z,1.90
2022-12-13T14:19:07.219Z,1.60
2022-12-13T14:21:56.551Z,1.30
2022-12-13T14:24:47.118Z,0.83
2022-12-13T14:27:40.618Z,0.65
2022-12-13T14:30:28.255Z,0.55
2022-12-13T14:32:59.153Z,0.37
2022-12-13T14:35:29.383Z,0.20
2022-12-13T14:37:59.970Z,-0.07
2022-12-13T14:40:32.020Z,-0.16
2022-12-13T14:43:00.958Z,-0.31
2022-12-13T14:45:31.585Z,-0.37
2022-12-13T14:48:04.614Z,-0.43
2022-12-13T14:50:36.771Z,-0.48
2022-12-13T14:53:06.858Z,-0.55
2022-12-13T14:55:37.533Z,-0.64
2022-12-13T14:58:19.852Z,-0.86
2022-12-13T15:00:48.607Z,-0.93
2022-12-13T15:03:26.274Z,-0.83
2022-12-13T15:05:57.343Z,-0.82
2022-12-13T15:08:26.217Z,-0.91
2022-12-13T15:10:56.806Z,-1.07
2022-12-13T15:13:30.158Z,-0.99
2022-12-13T15:16:01.725Z,-1.05
2022-12-13T15:18:50.726Z,-1.08
2022-12-13T15:21:27.900Z,-1.11
2022-12-13T15:24:00.685Z,-1.21
2022-12-13T15:26:33.555Z,-1.34
2022-12-13T15:29:10.411Z,-1.41
2022-12-13T15:31:40.580Z,-1.61
2022-12-13T15:34:36.013Z,-1.60
2022-12-13T15:37:08.071Z,-1.65
2022-12-13T15:39:58.911Z,-1.57
2022-12-13T15:42:33.445Z,-1.60
2022-12-13T15:45:03.985Z,-1.65
2022-12-13T15:47:32.767Z,-1.64
2022-12-13T15:50:04.767Z,-1.71
2022-12-13T15:52:36.235Z,-1.64
2022-12-13T15:55:28.689Z,-1.68
2022-12-13T15:57:58.811Z,-1.81
2022-12-13T16:00:31.355Z,-1.87
2022-12-13T16:03:09.746Z,-1.94
2022-12-13T16:05:43.176Z,-1.99
2022-12-13T16:08:25.358Z,-2.05
2022-12-13T16:10:54.669Z,-2.11
2022-12-13T16:13:27.281Z,-2.19
2022-12-13T16:16:00.426Z,-2.20
2022-12-13T16:18:46.169Z,-2.27
2022-12-13T16:21:15.970Z,-2.23
2022-12-13T16:23:48.800Z,-2.30
2022-12-13T16:26:23.749Z,-2.41
2022-12-13T16:28:52.021Z,-2.44
2022-12-13T16:31:22.404Z,-2.50
2022-12-13T16:33:51.119Z,-2.63
2022-12-13T16:36:21.882Z,-2.61
2022-12-13T16:38:51.138Z,-2.57
2022-12-13T16:41:19.620Z,-2.62
2022-12-13T16:43:56.204Z,-2.81
2022-12-13T16:47:14.998Z,-2.83
2022-12-13T16:49:21.375Z,-2.89
2022-12-13T16:51:51.687Z,-2.93
2022-12-13T16:54:21.421Z,-2.92
2022-12-13T16:56:54.203Z,-2.97
2022-12-13T16:59:25.271Z,-2.96
2022-12-13T17:01:54.542Z,-3.06
2022-12-13T17:04:27.742Z,-3.12
2022-12-13T17:06:58.740Z,-3.15
2022-12-13T17:09:27.219Z,-3.23
2022-12-13T17:11:56.293Z,-3.27
2022-12-13T17:14:25.250Z,-3.17
2022-12-13T17:16:54.937Z,-3.10
2022-12-13T17:19:24.944Z,-3.31
2022-12-13T17:21:56.987Z,-3.34
2022-12-13T17:24:28.044Z,-3.50
2022-12-13T17:26:58.567Z,-3.47
2022-12-13T17:29:29.119Z,-3.68
2022-12-13T17:31:58.567Z,-3.63
2022-12-13T17:34:28.563Z,-3.64
2022-12-13T17:36:58.617Z,-3.72
2022-12-13T17:39:29.560Z,-3.71
2022-12-13T17:41:58.184Z,-3.73
2022-12-13T17:44:26.635Z,-3.82
2022-12-13T17:46:56.140Z,-3.92
2022-12-13T17:49:25.450Z,-3.88
2022-12-13T17:51:54.890Z,-3.89
2022-12-13T17:54:25.359Z,-3.82
2022-12-13T17:56:56.645Z,-3.84
2022-12-13T17:59:25.761Z,-3.85
2022-12-13T18:01:55.411Z,-3.92
2022-12-13T18:04:23.987Z,-3.83
2022-12-13T18:06:53.829Z,-3.85
2022-12-13T18:09:22.698Z,-3.93
2022-12-13T18:11:51.416Z,-3.80
2022-12-13T18:14:24.392Z,-3.76
2022-12-13T18:16:53.753Z,-3.87
2022-12-13T18:19:26.489Z,-3.85
2022-12-13T18:21:56.869Z,-3.86
2022-12-13T18:24:27.396Z,-3.87
2022-12-13T18:26:57.167Z,-3.78
2022-12-13T18:29:28.578Z,-3.79
2022-12-13T18:31:58.057Z,-3.76
2022-12-13T18:34:27.134Z,-3.75
2022-12-13T18:36:56.901Z,-3.69
2022-12-13T18:39:26.023Z,-3.68
2022-12-13T18:41:55.640Z,-3.61
2022-12-13T18:44:26.864Z,-3.68
2022-12-13T18:47:01.701Z,-3.53
2022-12-13T18:49:31.176Z,-3.52
2022-12-13T18:52:03.563Z,-3.41
2022-12-13T18:54:33.073Z,-3.40
2022-12-13T18:57:03.258Z,-3.31
2022-12-13T18:59:34.671Z,-3.35
2022-12-13T19:02:05.910Z,-3.31
2022-12-13T19:04:37.705Z,-3.33
2022-12-13T19:07:08.522Z,-3.26
2022-12-13T19:09:39.246Z,-3.23
2022-12-13T19:12:10.237Z,-3.15
2022-12-13T19:14:41.196Z,-3.17
2022-12-13T19:17:12.546Z,-3.07
2022-12-13T19:19:42.901Z,-2.99
2022-12-13T19:22:19.762Z,-2.97
2022-12-13T19:24:49.908Z,-3.03
2022-12-13T19:27:21.317Z,-2.99
2022-12-13T19:29:55.660Z,-3.00
2022-12-13T19:32:32.049Z,-2.96
2022-12-13T19:35:03.062Z,-2.95
2022-12-13T19:37:33.554Z,-2.97
2022-12-13T19:40:06.068Z,-2.95
2022-12-13T19:42:39.618Z,-2.88
2022-12-13T19:45:19.964Z,-2.89
2022-12-13T19:47:52.783Z,-2.88
2022-12-13T19:50:23.080Z,-2.79
2022-12-13T19:52:53.195Z,-2.78
2022-12-13T19:55:24.048Z,-2.85
2022-12-13T19:57:53.825Z,-2.88
2022-12-13T20:00:30.384Z,-2.81
2022-12-13T20:03:02.445Z,-2.74
2022-12-13T20:05:33.990Z,-2.71
2022-12-13T20:08:08.300Z,-2.75
2022-12-13T20:10:40.534Z,-2.77
2022-12-13T20:13:12.369Z,-2.74
2022-12-13T20:15:50.730Z,-2.77
2022-12-13T20:18:22.835Z,-2.78
2022-12-13T20:21:11.571Z,-2.75
2022-12-13T20:23:48.743Z,-2.85
2022-12-13T20:26:23.577Z,-2.83
2022-12-13T20:28:55.087Z,-2.78
2022-12-13T20:31:27.163Z,-2.82
2022-12-13T20:34:02.426Z,-2.82
2022-12-13T20:36:34.877Z,-2.77
2022-12-13T20:39:07.246Z,-2.75
2022-12-13T20:41:38.665Z,-2.73
2022-12-13T20:44:11.475Z,-2.71
2022-12-13T20:46:41.670Z,-2.72
2022-12-13T20:49:13.292Z,-2.73
2022-12-13T20:51:44.129Z,-2.77
2022-12-13T20:54:14.405Z,-2.78
2022-12-13T20:56:44.301Z,-2.78
2022-12-13T20:59:15.435Z,-2.74
2022-12-13T21:01:48.894Z,-2.66
2022-12-13T21:04:20.698Z,-2.62
2022-12-13T21:06:49.725Z,-2.61
2022-12-13T21:09:22.418Z,-2.65
2022-12-13T21:11:52.092Z,-2.60
2022-12-13T21:14:23.492Z,-2.62
2022-12-13T21:16:53.230Z,-2.61
2022-12-13T21:19:25.715Z,-2.63
2022-12-13T21:21:54.774Z,-2.62
2022-12-13T21:24:26.515Z,-2.62
2022-12-13T21:26:56.618Z,-2.70
2022-12-13T21:29:25.335Z,-2.60
2022-12-13T21:31:55.104Z,-2.56
2022-12-13T21:34:25.294Z,-2.55
2022-12-13T21:36:54.223Z,-2.65
2022-12-13T21:39:24.345Z,-2.57
2022-12-13T21:41:53.950Z,-2.57
2022-12-13T21:44:23.044Z,-2.61
2022-12-13T21:49:41.263Z,-2.54
2022-12-13T21:52:10.482Z,-2.57
2022-12-13T21:54:38.755Z,-2.53
2022-12-13T21:57:24.695Z,-2.52
2022-12-13T21:59:52.840Z,-2.51
2022-12-13T22:02:21.175Z,-2.49
2022-12-13T22:04:52.487Z,-2.42
2022-12-13T22:07:23.472Z,-2.48
2022-12-13T22:09:52.668Z,-2.37
2022-12-13T22:12:24.062Z,-2.39
2022-12-13T22:14:53.057Z,-2.29
2022-12-13T22:17:29.715Z,-2.29
2022-12-13T22:20:05.247Z,-2.33
2022-12-13T22:22:33.612Z,-2.29
2022-12-13T22:25:01.995Z,-2.30
2022-12-13T22:27:30.194Z,-2.28
2022-12-13T22:29:58.730Z,-2.39
2022-12-13T22:32:29.987Z,-2.28
2022-12-13T22:34:58.302Z,-2.26
2022-12-13T22:37:28.143Z,-2.25
2022-12-13T22:39:56.209Z,-2.19
2022-12-13T22:42:24.436Z,-2.18
2022-12-13T22:44:52.469Z,-2.29
2022-12-13T22:47:21.194Z,-2.28
2022-12-13T22:49:49.420Z,-2.19
2022-12-13T22:52:17.735Z,-2.25
2022-12-13T22:54:47.391Z,-2.34
2022-12-13T22:57:15.593Z,-2.23
2022-12-13T22:59:43.743Z,-2.17
2022-12-13T23:02:12.071Z,-2.14
2022-12-13T23:04:40.315Z,-2.23
2022-12-13T23:07:08.600Z,-2.08
2022-12-13T23:09:36.766Z,-2.17
2022-12-13T23:12:24.758Z,-2.16
2022-12-13T23:14:52.879Z,-2.16
2022-12-13T23:17:20.946Z,-2.19
2022-12-13T23:19:53.458Z,-2.18
2022-12-13T23:22:22.816Z,-2.18
2022-12-13T23:24:51.313Z,-2.15
2022-12-13T23:27:23.070Z,-2.13
2022-12-13T23:29:51.731Z,-2.16
2022-12-13T23:32:19.940Z,-2.16
2022-12-13T23:34:48.075Z,-2.17
2022-12-13T23:37:16.188Z,-2.21
2022-12-13T23:39:44.374Z,-2.24
2022-12-13T23:42:12.558Z,-2.19
2022-12-13T23:44:43.140Z,-2.15
2022-12-13T23:47:11.417Z,-2.27
2022-12-13T23:49:39.561Z,-2.31
2022-12-13T23:52:07.757Z,-2.22
2022-12-13T23:54:35.901Z,-2.21
2022-12-13T23:57:04.167Z,-2.36
2022-12-13T23:59:32.322Z,-2.27
